ワシントン/ダレス の空港の天気 - METARとTAF

ワシントン・ダレス国際空港 ( KIAD / IAD ) - アメリカ バージニア州ダレス
飛行場実況気象(Metar)
観測時間07/28 23:02 EDT (07/29 03:02 UTC)
風向・風速東南東 4m/s
視程10km以上
天気現象弱い雨
全天の8割程度の雲 雲底高度 1490m
全天の8割程度の雲 雲底高度 1830m
全天を覆う雲 雲底高度 3350m
気温23.3℃
湿度85%
気圧1017hPa
METARKIAD 290302Z 12008KT 8SM -RA BKN049 BKN060 OVC110 23/21 A3002 RMK AO2 TSE02 OCNL LTG DSNT E-S P0003 T02330206
過去の天気等 Google飛行場航空写真 Wunderground天気予報

過去48時間のMETAR

飛行場予報(TAF)
発表時間: 7/28 22:21 EDT (7/29 02:21 UTC)
予報対象時間: 28日22時 EDT ~ 30日2時 EDT
風向・風速西北西 5m/s 瞬間風速 10m/s
視程4830m
天気現象弱いしゅう雨 周辺で雷
少しの積乱雲 雲底高度 1520m
全天の4割程度の雲 雲底高度 1830m
29日0時 EDT から
風向・風速不定 2m/s
視程10km以上
全天の4割程度の雲 雲底高度 1520m
全天の8割程度の雲 雲底高度 2740m
29日10時 EDT から
風向・風速南南西 3m/s
視程10km以上
全天の8割程度の雲 雲底高度 3050m
29日15時 EDT から
風向・風速南西 3m/s
視程10km以上
天気現象周辺で雷
全天の4割程度の積乱雲 雲底高度 1520m
全天の8割程度の雲 雲底高度 3050m
29日19時 EDT から
風向・風速南南西 3m/s
視程10km以上
全天の8割程度の雲 雲底高度 6100m
KIAD 290221Z 2902/3006 29010G20KT 3SM -SHRA VCTS FEW050CB SCT060
FM290400 VRB03KT P6SM SCT050 BKN090
FM291400 21005KT P6SM BKN100
FM291900 22005KT P6SM VCTS SCT050CB BKN100
FM292300 20006KT P6SM BKN200